Time;durP1;ratioP1;P1;durP2;ratioP2;P2;SDS_P1;SDS_P2;PMS_P1;PMS_P2;Temp;Humidity;BMP_temperature;BMP_pressure;BME280_temperature;BME280_humidity;BME280_pressure;Samples;Min_cycle;Max_cycle;Signal;HPM_P1;HPM_P2
2021/12/23 00:01:41;;;;;;;16.08;9.63;;;-4.00;1.00;;;;;;5077258;28;20657;-75
2021/12/23 00:04:09;;;;;;;21.30;10.18;;;-4.00;1.00;;;;;;5078412;28;20198;-75
2021/12/23 00:06:34;;;;;;;15.93;9.48;;;-4.00;1.00;;;;;;5078301;28;20221;-75
2021/12/23 00:09:03;;;;;;;18.87;9.90;;;-4.00;1.00;;;;;;5073713;28;20183;-75
2021/12/23 00:11:29;;;;;;;15.32;9.25;;;-4.00;1.00;;;;;;5074953;28;20187;-75
2021/12/23 00:14:07;;;;;;;22.03;11.63;;;;;;;;;;5075343;28;20178;-75
2021/12/23 00:16:45;;;;;;;23.40;11.90;;;-3.80;1.00;;;;;;5078925;28;20197;-75
2021/12/23 00:24:37;;;;;;;25.73;12.13;;;-3.60;1.00;;;;;;5075428;28;20201;-75
2021/12/23 00:27:03;;;;;;;22.33;11.60;;;-3.60;1.00;;;;;;5074561;28;20217;-75
2021/12/23 00:29:33;;;;;;;26.35;12.05;;;-3.60;1.00;;;;;;5074881;28;20232;-74
2021/12/23 00:31:59;;;;;;;21.33;11.68;;;-3.50;1.00;;;;;;5074329;28;20279;-75
2021/12/23 00:34:26;;;;;;;23.40;11.35;;;-3.50;1.00;;;;;;5079695;28;20621;-76
2021/12/23 00:36:53;;;;;;;22.88;10.82;;;-3.40;1.00;;;;;;5080609;28;20178;-75
2021/12/23 00:39:19;;;;;;;22.42;11.30;;;-3.40;1.00;;;;;;5074567;28;20717;-75
2021/12/23 00:41:52;;;;;;;22.63;10.80;;;-3.40;1.00;;;;;;5074321;28;20182;-75
2021/12/23 00:44:18;;;;;;;17.52;10.25;;;-3.40;1.00;;;;;;5074514;28;20662;-75
2021/12/23 00:46:44;;;;;;;19.35;10.55;;;-3.40;1.00;;;;;;5075236;28;20237;-75
2021/12/23 00:49:10;;;;;;;17.40;10.30;;;-3.40;1.00;;;;;;5073927;28;20175;-75
2021/12/23 00:51:36;;;;;;;19.63;12.17;;;;;;;;;;5074003;28;20657;-75
2021/12/23 00:54:05;;;;;;;20.83;10.85;;;-3.40;1.00;;;;;;5073607;28;20210;-75
2021/12/23 00:56:33;;;;;;;20.52;12.07;;;-3.30;1.00;;;;;;5076188;28;20193;-75
2021/12/23 00:58:59;;;;;;;23.08;11.82;;;-3.30;1.00;;;;;;5079322;28;20526;-75
2021/12/23 01:01:25;;;;;;;21.98;11.65;;;-3.30;1.00;;;;;;5078349;28;20178;-75
2021/12/23 01:03:51;;;;;;;20.77;10.80;;;;;;;;;;5074287;28;20314;-75
2021/12/23 01:06:17;;;;;;;19.05;10.65;;;-3.20;1.00;;;;;;5078456;28;20428;-75
2021/12/23 01:08:44;;;;;;;18.00;10.30;;;-3.20;1.00;;;;;;5077716;28;20190;-76
2021/12/23 01:11:10;;;;;;;17.42;11.00;;;-3.10;1.00;;;;;;5073878;28;20237;-76
2021/12/23 01:13:38;;;;;;;21.17;11.00;;;;;;;;;;5073866;28;20652;-75
2021/12/23 01:16:06;;;;;;;19.65;11.23;;;-3.10;1.00;;;;;;5075502;28;20432;-75
2021/12/23 01:18:51;;;;;;;16.80;10.18;;;-3.10;1.00;;;;;;5073548;28;20545;-75
2021/12/23 01:21:17;;;;;;;20.10;11.15;;;-3.10;1.00;;;;;;5073076;28;20201;-75
2021/12/23 01:23:48;;;;;;;14.90;9.63;;;-3.10;1.00;;;;;;5073624;28;20642;-75
2021/12/23 01:26:18;;;;;;;15.73;9.23;;;-3.10;1.00;;;;;;5077102;28;20224;-75
2021/12/23 01:28:45;;;;;;;18.33;9.85;;;-3.10;1.00;;;;;;5077919;28;20179;-75
2021/12/23 01:31:11;;;;;;;18.27;10.48;;;-3.10;1.00;;;;;;5080909;28;20401;-75
2021/12/23 01:33:37;;;;;;;21.43;10.70;;;-3.20;1.00;;;;;;5091282;28;20828;-75
2021/12/23 01:36:03;;;;;;;22.20;11.57;;;-3.20;1.00;;;;;;5073502;28;20419;-75
2021/12/23 01:38:28;;;;;;;25.03;11.27;;;-3.20;1.00;;;;;;5081914;28;20178;-75
2021/12/23 01:40:54;;;;;;;22.27;11.80;;;-3.20;1.00;;;;;;5080113;28;20404;-75
2021/12/23 01:43:20;;;;;;;19.83;11.50;;;-3.20;1.00;;;;;;5079884;28;20661;-75
2021/12/23 01:45:49;;;;;;;19.60;11.65;;;-3.20;1.00;;;;;;5073248;28;20199;-75
2021/12/23 01:48:16;;;;;;;23.88;11.75;;;-3.20;1.00;;;;;;5073417;28;20236;-75
2021/12/23 01:50:41;;;;;;;23.83;11.60;;;-3.20;1.00;;;;;;5073273;28;20209;-75
2021/12/23 01:53:07;;;;;;;23.10;12.30;;;;;;;;;;5074618;28;20257;-75
2021/12/23 01:55:35;;;;;;;25.45;12.07;;;-3.10;1.00;;;;;;5073935;28;20210;-76
2021/12/23 01:58:01;;;;;;;23.25;12.95;;;-3.10;1.00;;;;;;5073202;28;20185;-75
2021/12/23 02:00:33;;;;;;;21.90;12.50;;;-3.10;1.00;;;;;;5080269;28;20186;-75
2021/12/23 02:02:59;;;;;;;20.60;12.30;;;-3.10;1.00;;;;;;5076934;28;20178;-75
2021/12/23 02:05:24;;;;;;;27.02;12.90;;;-3.10;1.00;;;;;;5079581;28;20277;-75
2021/12/23 02:07:51;;;;;;;25.77;12.60;;;;;;;;;;5082124;28;20212;-75
2021/12/23 02:10:17;;;;;;;28.60;13.68;;;-3.00;1.00;;;;;;5072707;28;20197;-75
2021/12/23 02:12:46;;;;;;;26.17;12.90;;;-3.00;1.00;;;;;;5072888;28;20246;-75
2021/12/23 02:15:13;;;;;;;28.00;14.55;;;-2.90;1.00;;;;;;5080393;28;20559;-75
2021/12/23 02:17:38;;;;;;;25.58;13.50;;;-2.90;1.00;;;;;;5082570;28;20167;-75
2021/12/23 02:20:07;;;;;;;23.10;13.57;;;-2.90;1.00;;;;;;5092987;28;20170;-75
2021/12/23 02:22:32;;;;;;;23.60;13.57;;;-2.90;1.00;;;;;;5079603;28;20262;-75
2021/12/23 02:24:58;;;;;;;20.43;12.20;;;-2.90;1.00;;;;;;5084434;28;20611;-75
2021/12/23 02:27:23;;;;;;;23.50;12.80;;;-2.90;1.00;;;;;;5073435;28;20182;-75
2021/12/23 02:29:49;;;;;;;22.53;12.70;;;-3.00;1.00;;;;;;5080095;28;20186;-75
2021/12/23 02:32:15;;;;;;;22.60;13.03;;;-3.00;1.00;;;;;;5091616;28;20174;-75
2021/12/23 02:34:40;;;;;;;22.40;12.40;;;-3.00;1.00;;;;;;5096911;28;20174;-75
2021/12/23 02:37:07;;;;;;;22.30;12.87;;;;;;;;;;5085354;28;20236;-75
2021/12/23 02:39:34;;;;;;;25.50;13.40;;;-3.00;1.00;;;;;;5076483;28;20171;-75
2021/12/23 02:41:59;;;;;;;33.15;13.65;;;-3.10;1.00;;;;;;5076848;28;20175;-75
2021/12/23 02:44:25;;;;;;;22.87;12.17;;;-3.00;1.00;;;;;;5076666;28;20591;-75
2021/12/23 02:46:51;;;;;;;22.80;12.63;;;;;;;;;;5079474;28;20657;-75
2021/12/23 02:49:18;;;;;;;19.15;11.15;;;-3.10;1.00;;;;;;5076133;28;20179;-75
2021/12/23 02:51:43;;;;;;;22.58;12.40;;;-3.10;1.00;;;;;;5075199;28;20182;-75
2021/12/23 02:54:14;;;;;;;20.40;12.10;;;-3.20;1.00;;;;;;5075900;28;20693;-75
2021/12/23 02:56:40;;;;;;;21.77;12.77;;;-3.20;1.00;;;;;;5076847;28;20170;-75
2021/12/23 02:59:06;;;;;;;26.90;12.87;;;-3.10;1.00;;;;;;5076478;28;20182;-75
2021/12/23 03:01:32;;;;;;;26.93;13.30;;;;;;;;;;5076488;28;20715;-75
2021/12/23 03:03:59;;;;;;;24.05;12.30;;;-3.20;1.00;;;;;;5075944;28;20194;-75
2021/12/23 03:06:25;;;;;;;24.92;13.48;;;-3.20;1.00;;;;;;5080202;28;20179;-75
2021/12/23 03:08:53;;;;;;;23.98;12.77;;;-3.20;1.00;;;;;;5081120;28;20247;-75
2021/12/23 03:11:21;;;;;;;22.13;12.82;;;-3.10;1.00;;;;;;5075930;28;20190;-75
2021/12/23 03:13:48;;;;;;;23.42;13.38;;;-3.20;1.00;;;;;;5075906;28;20178;-75
2021/12/23 03:16:18;;;;;;;31.20;14.13;;;-3.10;1.00;;;;;;5089254;28;20187;-75
2021/12/23 03:18:43;;;;;;;26.17;13.38;;;-3.10;1.00;;;;;;5085405;28;20535;-75
2021/12/23 03:21:10;;;;;;;24.33;12.87;;;;;;;;;;5075639;28;20236;-75
2021/12/23 03:23:36;;;;;;;22.77;12.75;;;-3.20;1.00;;;;;;5074355;28;20202;-75
2021/12/23 03:26:03;;;;;;;21.27;12.05;;;-3.20;1.00;;;;;;5075583;28;20206;-75
2021/12/23 03:28:29;;;;;;;23.58;13.00;;;-3.20;1.00;;;;;;5075785;28;20179;-75
2021/12/23 03:30:55;;;;;;;25.42;13.38;;;-3.30;1.00;;;;;;5081322;28;20630;-75
2021/12/23 03:33:21;;;;;;;27.60;12.80;;;-3.30;1.00;;;;;;5084022;28;20175;-75
2021/12/23 03:35:47;;;;;;;27.27;13.97;;;-3.30;1.00;;;;;;5075558;28;20194;-75
2021/12/23 03:38:13;;;;;;;25.77;13.32;;;-3.40;1.00;;;;;;5075557;28;20498;-75
2021/12/23 03:40:39;;;;;;;23.88;12.85;;;-3.30;1.00;;;;;;5075545;28;20187;-75
2021/12/23 03:43:05;;;;;;;23.90;13.07;;;-1.10;1.00;;;;;;5075356;28;20186;-75
2021/12/23 03:45:31;;;;;;;26.13;12.17;;;-3.40;1.00;;;;;;5075574;28;20461;-75
2021/12/23 03:47:56;;;;;;;24.87;12.83;;;-3.30;1.00;;;;;;5075597;28;20257;-75
2021/12/23 03:50:24;;;;;;;25.93;13.23;;;-3.40;1.00;;;;;;5074938;28;20682;-76
2021/12/23 03:52:52;;;;;;;27.77;12.52;;;-3.40;1.00;;;;;;5075365;28;20175;-75
2021/12/23 03:55:18;;;;;;;21.35;12.80;;;-3.30;1.00;;;;;;5080289;28;20178;-75
2021/12/23 03:57:46;;;;;;;34.80;13.13;;;-3.30;1.00;;;;;;5083291;28;20538;-75
2021/12/23 04:00:14;;;;;;;29.27;13.45;;;-3.30;1.00;;;;;;5075234;28;20179;-75
2021/12/23 04:02:41;;;;;;;21.27;12.70;;;-3.30;1.00;;;;;;5075353;28;20175;-75
2021/12/23 04:05:07;;;;;;;23.95;13.10;;;-3.30;1.00;;;;;;5075695;28;20546;-75
2021/12/23 04:07:33;;;;;;;24.50;13.15;;;-3.30;1.00;;;;;;5080654;28;20266;-75
2021/12/23 04:09:59;;;;;;;28.10;13.25;;;-3.30;1.00;;;;;;5085771;28;20220;-75
2021/12/23 04:12:25;;;;;;;22.10;11.55;;;-3.20;1.00;;;;;;5081173;28;20182;-75
2021/12/23 04:14:51;;;;;;;20.47;12.10;;;-3.20;1.00;;;;;;5074927;28;20661;-75
2021/12/23 04:17:17;;;;;;;21.60;13.03;;;;;;;;;;5073979;28;20232;-75
2021/12/23 04:19:46;;;;;;;24.25;13.35;;;-3.10;1.00;;;;;;5074811;28;20191;-75
2021/12/23 04:22:12;;;;;;;23.40;12.45;;;-3.10;1.00;;;;;;5074845;28;20244;-75
2021/12/23 04:24:37;;;;;;;26.67;14.37;;;-3.10;1.00;;;;;;5074922;28;20206;-75
2021/12/23 04:27:03;;;;;;;20.30;12.50;;;-3.00;1.00;;;;;;5074451;28;20441;-75
2021/12/23 04:29:29;;;;;;;24.95;13.63;;;-2.90;1.00;;;;;;5087027;28;20444;-75
2021/12/23 04:31:55;;;;;;;22.93;12.30;;;-2.90;1.00;;;;;;5093052;28;20183;-75
2021/12/23 04:34:20;;;;;;;19.77;12.10;;;-2.90;1.00;;;;;;5089798;28;20182;-75
2021/12/23 04:36:46;;;;;;;22.80;13.67;;;;;;;;;;5074389;28;20194;-75
2021/12/23 04:39:12;;;;;;;26.98;12.80;;;-2.80;1.00;;;;;;5074456;28;20214;-75
2021/12/23 04:41:38;;;;;;;23.47;12.27;;;;;;;;;;5074357;28;20217;-75
2021/12/23 04:44:05;;;;;;;20.85;12.38;;;-2.80;1.00;;;;;;5074263;28;20190;-75
2021/12/23 04:46:35;;;;;;;32.88;12.73;;;-2.80;1.00;;;;;;5079938;28;20202;-75
2021/12/23 04:49:01;;;;;;;21.00;12.90;;;-2.70;1.00;;;;;;5073816;28;20376;-75
2021/12/23 04:51:27;;;;;;;20.13;11.83;;;-2.80;1.00;;;;;;5074929;28;20213;-75
2021/12/23 04:53:52;;;;;;;24.30;13.07;;;-2.70;1.00;;;;;;5073612;28;20417;-75
2021/12/23 04:56:18;;;;;;;23.87;12.00;;;-2.70;1.00;;;;;;5086602;28;20201;-75
2021/12/23 04:58:45;;;;;;;21.87;12.10;;;-2.70;1.00;;;;;;5073588;28;20689;-75
2021/12/23 05:01:27;;;;;;;23.30;13.63;;;-2.70;1.00;;;;;;5073792;28;20656;-74
2021/12/23 05:03:57;;;;;;;20.77;12.93;;;-2.70;1.00;;;;;;5073676;28;20182;-75
2021/12/23 05:06:23;;;;;;;26.60;12.10;;;-2.80;1.00;;;;;;5073272;28;20187;-75
2021/12/23 05:08:48;;;;;;;25.50;12.30;;;-2.80;1.00;;;;;;5073869;28;20543;-75
2021/12/23 05:11:15;;;;;;;24.53;13.10;;;-2.80;1.00;;;;;;5076112;28;20339;-75
2021/12/23 05:13:40;;;;;;;25.60;12.35;;;-2.80;1.00;;;;;;5084363;28;20653;-75
2021/12/23 05:16:07;;;;;;;21.67;12.70;;;;;;;;;;5077053;28;20179;-75
2021/12/23 05:18:35;;;;;;;20.42;11.65;;;-2.80;1.00;;;;;;5073664;28;20637;-75
2021/12/23 05:21:02;;;;;;;24.27;12.80;;;-2.80;1.00;;;;;;5074646;28;20641;-75
2021/12/23 05:23:29;;;;;;;24.70;12.80;;;-2.80;1.00;;;;;;5083118;28;20178;-75
2021/12/23 05:25:54;;;;;;;27.17;13.02;;;-2.70;1.00;;;;;;5075637;28;20206;-75
2021/12/23 05:28:20;;;;;;;28.00;12.77;;;-2.70;1.00;;;;;;5074259;28;20187;-75
2021/12/23 05:30:51;;;;;;;32.30;13.10;;;-2.70;1.00;;;;;;5077643;28;20179;-75
2021/12/23 05:33:17;;;;;;;23.50;12.60;;;-2.70;1.00;;;;;;5083221;28;20243;-75
2021/12/23 05:35:43;;;;;;;30.48;13.50;;;-2.70;1.00;;;;;;5075502;28;20185;-76
2021/12/23 05:38:09;;;;;;;18.83;12.10;;;;;;;;;;5077537;28;20713;-75
2021/12/23 05:40:35;;;;;;;22.52;12.27;;;-2.80;1.00;;;;;;5073322;28;20187;-75
2021/12/23 05:43:02;;;;;;;24.42;13.18;;;-2.70;1.00;;;;;;5079033;28;20184;-75
2021/12/23 05:45:27;;;;;;;25.33;12.52;;;-2.70;1.00;;;;;;5075353;28;20260;-75
2021/12/23 05:47:53;;;;;;;24.83;13.00;;;;;;;;;;5076560;28;20175;-75
2021/12/23 05:50:21;;;;;;;25.05;13.15;;;-2.60;1.00;;;;;;5072941;28;20186;-75
2021/12/23 05:52:46;;;;;;;21.77;12.38;;;-2.60;1.00;;;;;;5073130;28;20197;-75
2021/12/23 05:55:13;;;;;;;27.40;12.97;;;-2.60;1.00;;;;;;5074764;28;20551;-75
2021/12/23 05:57:40;;;;;;;21.13;12.15;;;-2.60;1.00;;;;;;5072994;28;20175;-75
2021/12/23 06:00:14;;;;;;;24.10;13.10;;;-2.50;1.00;;;;;;5079677;28;20189;-75
2021/12/23 06:02:40;;;;;;;27.63;13.30;;;-2.50;1.00;;;;;;5075148;28;20221;-75
2021/12/23 06:05:06;;;;;;;25.43;14.07;;;-2.50;1.00;;;;;;5075111;28;20240;-75
2021/12/23 06:07:32;;;;;;;18.15;11.88;;;-2.40;1.00;;;;;;5074669;28;20171;-75
2021/12/23 06:09:58;;;;;;;25.00;13.07;;;-2.40;1.00;;;;;;5075583;28;20512;-75
2021/12/23 06:12:23;;;;;;;27.10;12.80;;;-2.40;1.00;;;;;;5072845;28;20638;-75
2021/12/23 06:14:49;;;;;;;20.90;13.10;;;;;;;;;;5077667;28;20186;-75
2021/12/23 06:17:15;;;;;;;22.67;13.18;;;-2.30;1.00;;;;;;5079026;28;20645;-75
2021/12/23 06:19:41;;;;;;;20.67;13.10;;;;;;;;;;5076319;28;20182;-75
2021/12/23 06:22:07;;;;;;;29.50;13.43;;;-2.30;1.00;;;;;;5080494;28;20276;-75
2021/12/23 06:24:32;;;;;;;20.47;12.60;;;-2.30;1.00;;;;;;5071369;28;20202;-75
2021/12/23 06:26:59;;;;;;;26.47;12.47;;;;;;;;;;5072646;28;20183;-75
2021/12/23 06:29:24;;;;;;;26.40;13.15;;;-2.20;1.00;;;;;;5091645;28;20576;-76
2021/12/23 06:31:50;;;;;;;23.47;13.13;;;;;;;;;;5086574;28;20303;-75
2021/12/23 06:34:16;;;;;;;22.03;13.33;;;;;;;;;;5077849;28;20575;-75
2021/12/23 06:36:44;;;;;;;22.75;12.60;;;-2.20;1.00;;;;;;5072749;28;20424;-75
2021/12/23 06:39:09;;;;;;;27.13;13.25;;;-2.20;1.00;;;;;;5080164;28;20183;-75
2021/12/23 06:41:35;;;;;;;25.93;13.10;;;-2.30;1.00;;;;;;5074585;28;20707;-75
2021/12/23 06:44:01;;;;;;;25.80;14.00;;;;;;;;;;5077524;28;20194;-77
2021/12/23 06:46:26;;;;;;;22.70;12.13;;;-2.10;1.00;;;;;;5080275;28;20638;-75
2021/12/23 06:48:52;;;;;;;26.90;12.97;;;-2.10;1.00;;;;;;5077635;28;20186;-75
2021/12/23 06:51:18;;;;;;;25.97;13.47;;;;;;;;;;5080559;28;20187;-75
2021/12/23 06:53:44;;;;;;;25.00;13.83;;;-2.10;1.00;;;;;;5078587;28;20166;-75
2021/12/23 06:56:11;;;;;;;18.27;12.03;;;;;;;;;;5079388;28;20475;-75
2021/12/23 06:58:39;;;;;;;24.85;13.30;;;-2.00;1.00;;;;;;5078124;28;20183;-76
2021/12/23 07:01:05;;;;;;;20.25;12.00;;;-2.00;1.00;;;;;;5081368;28;20179;-75
2021/12/23 07:04:02;;;;;;;27.75;13.30;;;-2.00;1.00;;;;;;5076321;28;20187;-75
2021/12/23 07:06:25;;;;;;;24.65;13.18;;;-2.00;1.00;;;;;;5075838;28;20190;-75
2021/12/23 07:08:54;;;;;;;25.40;13.57;;;-1.90;1.00;;;;;;5079916;28;20206;-79
2021/12/23 07:11:21;;;;;;;25.38;13.43;;;-1.90;1.00;;;;;;5073945;28;20213;-76
2021/12/23 07:13:49;;;;;;;21.10;12.73;;;-1.80;1.00;;;;;;5075216;28;20646;-76
2021/12/23 07:16:14;;;;;;;22.05;12.70;;;-1.70;1.00;;;;;;5072339;28;20324;-75
2021/12/23 07:18:40;;;;;;;28.83;13.40;;;-1.70;1.00;;;;;;5076788;28;20205;-75
2021/12/23 07:21:06;;;;;;;25.67;13.13;;;-1.60;1.00;;;;;;5075880;28;20182;-78
2021/12/23 07:23:32;;;;;;;22.23;13.32;;;-1.60;1.00;;;;;;5069035;28;20269;-78
2021/12/23 07:25:57;;;;;;;45.87;13.77;;;-1.50;1.00;;;;;;5085657;28;20815;-76
2021/12/23 07:28:23;;;;;;;22.50;11.83;;;-1.60;1.00;;;;;;5094344;28;20222;-77
2021/12/23 07:30:49;;;;;;;24.57;13.27;;;-1.60;1.00;;;;;;5086330;28;20257;-78
2021/12/23 07:33:15;;;;;;;24.53;12.50;;;;;;;;;;5080199;28;20183;-77
2021/12/23 07:35:41;;;;;;;22.57;13.00;;;;;;;;;;5081890;28;20175;-77
2021/12/23 07:38:07;;;;;;;23.08;13.38;;;-1.40;1.00;;;;;;5075878;28;20413;-75
2021/12/23 07:40:33;;;;;;;36.53;15.10;;;-1.40;1.00;;;;;;5076727;28;20245;-76
2021/12/23 07:43:10;;;;;;;29.43;13.90;;;-1.40;1.00;;;;;;5081091;28;20417;-76
2021/12/23 07:45:38;;;;;;;24.67;13.48;;;-1.40;1.00;;;;;;5082598;28;20547;-75
2021/12/23 07:48:04;;;;;;;25.00;12.95;;;-1.30;1.00;;;;;;5077864;28;20179;-75
2021/12/23 07:50:30;;;;;;;23.27;12.63;;;0.60;1.00;;;;;;5082443;28;20257;-75
2021/12/23 07:52:55;;;;;;;27.37;14.00;;;-1.20;1.00;;;;;;5077494;28;20433;-75
2021/12/23 07:55:21;;;;;;;25.47;13.57;;;-1.20;1.00;;;;;;5080811;28;20412;-75
2021/12/23 07:57:49;;;;;;;33.07;14.00;;;-1.20;1.00;;;;;;5083156;28;20202;-75
2021/12/23 08:00:16;;;;;;;25.02;14.40;;;-1.10;1.00;;;;;;5076329;28;20480;-75
2021/12/23 08:02:42;;;;;;;25.77;13.90;;;-1.00;1.00;;;;;;5078944;28;20526;-75
2021/12/23 08:05:08;;;;;;;25.70;13.55;;;-1.00;1.00;;;;;;5074762;28;20215;-75
2021/12/23 08:07:39;;;;;;;22.73;13.30;;;-0.90;1.00;;;;;;5077946;28;20553;-75
2021/12/23 08:10:05;;;;;;;28.60;13.25;;;-0.90;1.00;;;;;;5074701;28;20416;-75
2021/12/23 08:12:30;;;;;;;23.33;13.13;;;-0.80;1.00;;;;;;5084171;28;20269;-75
2021/12/23 08:14:56;;;;;;;22.03;12.93;;;-0.60;1.00;;;;;;5077060;28;20262;-75
2021/12/23 08:17:22;;;;;;;34.03;16.17;;;-0.70;1.00;;;;;;5077420;28;20179;-75
2021/12/23 08:19:47;;;;;;;25.90;14.30;;;-0.60;1.00;;;;;;5078679;28;20187;-75
2021/12/23 08:22:13;;;;;;;28.50;15.43;;;;;;;;;;5074411;28;20183;-76
2021/12/23 08:24:39;;;;;;;30.17;14.68;;;-0.60;1.00;;;;;;5080934;28;20209;-75
2021/12/23 08:27:07;;;;;;;33.10;15.37;;;-0.50;1.00;;;;;;5082433;28;20183;-76
2021/12/23 08:29:32;;;;;;;29.85;15.88;;;-0.60;1.00;;;;;;5076524;28;20498;-76
2021/12/23 08:31:58;;;;;;;35.57;16.50;;;;;;;;;;5086024;28;20185;-75
2021/12/23 08:34:25;;;;;;;31.77;15.83;;;-0.40;1.00;;;;;;5081103;28;20268;-75
2021/12/23 08:36:52;;;;;;;33.22;15.25;;;-0.50;1.00;;;;;;5074515;28;20444;-75
2021/12/23 08:39:19;;;;;;;30.92;14.70;;;-0.50;1.00;;;;;;5077038;28;20171;-75
2021/12/23 08:41:45;;;;;;;26.65;14.98;;;-0.40;1.00;;;;;;5080152;28;20175;-75
2021/12/23 08:44:11;;;;;;;33.42;15.35;;;-0.30;1.00;;;;;;5073824;28;20209;-75
2021/12/23 08:46:37;;;;;;;30.20;14.35;;;-0.30;1.00;;;;;;5084959;28;20273;-75
2021/12/23 08:49:03;;;;;;;26.70;14.67;;;;;;;;;;5086287;28;20614;-75
2021/12/23 08:51:29;;;;;;;34.85;15.30;;;;;;;;;;5077024;28;20175;-76
2021/12/23 08:53:55;;;;;;;28.60;15.40;;;;;;;;;;5072005;28;20187;-76
2021/12/23 08:56:21;;;;;;;27.87;15.20;;;;;;;;;;5073933;28;20471;-75
2021/12/23 08:58:47;;;;;;;30.63;14.63;;;-0.10;1.00;;;;;;5073913;28;20460;-75
2021/12/23 09:01:12;;;;;;;26.50;16.07;;;-0.10;1.00;;;;;;5073546;28;20783;-75
2021/12/23 09:03:40;;;;;;;27.73;14.60;;;;;;;;;;5074044;28;20235;-75
2021/12/23 09:06:07;;;;;;;29.10;15.77;;;-0.10;1.00;;;;;;5073614;28;20206;-75
2021/12/23 09:08:33;;;;;;;31.13;15.50;;;-0.10;1.00;;;;;;5073329;28;20225;-75
2021/12/23 09:10:59;;;;;;;28.47;14.40;;;0.00;1.00;;;;;;5073563;28;20638;-76
2021/12/23 09:13:26;;;;;;;33.30;15.02;;;0.00;1.00;;;;;;5073675;28;20421;-76
2021/12/23 09:15:52;;;;;;;28.98;15.25;;;0.00;1.00;;;;;;5073329;28;20185;-75
2021/12/23 09:18:19;;;;;;;31.25;15.75;;;0.10;1.00;;;;;;5079827;28;20260;-75
2021/12/23 09:20:45;;;;;;;30.17;15.63;;;0.10;1.00;;;;;;5082668;28;20668;-75
2021/12/23 09:23:11;;;;;;;25.42;14.65;;;0.10;1.00;;;;;;5074941;28;20183;-75
2021/12/23 09:25:38;;;;;;;27.27;15.47;;;0.20;1.00;;;;;;5074298;28;20213;-75
2021/12/23 09:28:39;;;;;;;26.45;14.25;;;0.20;1.00;;;;;;5082108;28;20428;-75
2021/12/23 09:33:49;;;;;;;27.83;14.25;;;0.30;1.00;;;;;;5073423;28;20190;-75
2021/12/23 09:36:16;;;;;;;29.17;14.70;;;0.30;1.00;;;;;;5079442;28;20191;-75
2021/12/23 09:38:42;;;;;;;32.92;15.75;;;0.30;1.00;;;;;;5073376;28;20440;-75
2021/12/23 09:41:14;;;;;;;34.92;15.32;;;0.30;1.00;;;;;;5072914;28;20196;-75
2021/12/23 09:43:41;;;;;;;28.30;15.05;;;0.30;1.00;;;;;;5073248;28;20292;-75
2021/12/23 09:46:09;;;;;;;27.90;14.02;;;0.30;1.00;;;;;;5072914;28;20199;-75
2021/12/23 09:48:35;;;;;;;36.58;15.65;;;0.30;1.00;;;;;;5073590;28;20183;-75
2021/12/23 09:51:04;;;;;;;28.90;15.15;;;0.30;1.00;;;;;;5076147;28;20329;-75
2021/12/23 09:53:32;;;;;;;28.88;15.32;;;0.10;1.00;;;;;;5082130;28;20186;-75
2021/12/23 09:55:58;;;;;;;25.10;13.68;;;0.10;1.00;;;;;;5088951;28;20695;-75
2021/12/23 09:58:24;;;;;;;23.85;14.93;;;0.20;1.00;;;;;;5072950;28;20661;-75
2021/12/23 10:00:53;;;;;;;28.90;15.43;;;0.10;1.00;;;;;;5073897;28;20585;-75
2021/12/23 10:03:22;;;;;;;31.27;14.80;;;0.20;1.00;;;;;;5082358;28;20245;-75
2021/12/23 10:05:48;;;;;;;29.13;15.30;;;0.10;1.00;;;;;;5077730;28;20594;-75
2021/12/23 10:08:15;;;;;;;31.67;15.20;;;0.20;1.00;;;;;;5091430;28;20273;-76
2021/12/23 10:38:21;;;;;;;26.13;14.55;;;0.40;1.00;;;;;;5072473;28;20186;-75
2021/12/23 10:40:52;;;;;;;29.70;14.70;;;0.40;1.00;;;;;;5072815;28;20552;-75
2021/12/23 10:43:38;;;;;;;28.00;14.55;;;0.50;1.00;;;;;;5085298;28;20179;-75
2021/12/23 10:46:26;;;;;;;31.48;16.50;;;0.60;1.00;;;;;;5077048;28;20576;-76
2021/12/23 11:00:24;;;;;;;30.08;15.00;;;0.90;1.00;;;;;;5076265;28;20182;-76
2021/12/23 11:03:14;;;;;;;29.55;15.85;;;1.00;1.00;;;;;;5076150;28;20159;-76
2021/12/23 11:05:54;;;;;;;26.10;14.95;;;0.90;1.00;;;;;;5075107;28;20319;-75
2021/12/23 11:08:35;;;;;;;25.95;14.65;;;0.90;1.00;;;;;;5076366;28;20174;-76
2021/12/23 11:38:29;;;;;;;27.42;15.25;;;1.40;1.00;;;;;;5075834;28;20179;-75
2021/12/23 11:41:00;;;;;;;27.85;14.52;;;1.50;1.00;;;;;;5077012;28;20299;-75
2021/12/23 11:46:14;;;;;;;34.92;16.23;;;1.60;1.00;;;;;;4989119;28;20201;-77
2021/12/23 11:48:44;;;;;;;29.98;14.70;;;;;;;;;;5000565;28;20213;-76
2021/12/23 11:51:16;;;;;;;29.92;14.63;;;1.60;1.00;;;;;;4991076;28;20196;-76
2021/12/23 11:53:43;;;;;;;25.90;14.02;;;1.70;1.00;;;;;;4993418;28;20221;-77
2021/12/23 11:56:11;;;;;;;30.17;12.63;;;1.60;1.00;;;;;;4986534;28;20696;-76
2021/12/23 11:58:44;;;;;;;28.40;15.13;;;1.60;1.00;;;;;;4984075;28;20205;-81
2021/12/23 12:01:19;;;;;;;24.30;12.70;;;1.60;1.00;;;;;;4979705;28;20190;-77
2021/12/23 12:04:00;;;;;;;33.80;16.35;;;1.60;1.00;;;;;;4983204;28;20248;-75
2021/12/23 12:06:31;;;;;;;28.48;14.98;;;1.70;1.00;;;;;;4983932;28;20186;-75
2021/12/23 12:09:22;;;;;;;30.95;15.30;;;1.80;1.00;;;;;;4989747;28;20248;-75
2021/12/23 12:12:00;;;;;;;30.35;15.88;;;1.80;1.00;;;;;;4976702;28;20189;-76
2021/12/23 12:14:39;;;;;;;33.03;15.05;;;1.80;1.00;;;;;;4987113;28;20287;-76
2021/12/23 12:17:23;;;;;;;28.15;14.35;;;1.80;1.00;;;;;;4993113;28;20227;-76
2021/12/23 12:20:34;;;;;;;31.20;14.10;;;1.80;1.00;;;;;;4993254;28;20205;-76
2021/12/23 12:23:28;;;;;;;39.28;14.25;;;1.80;1.00;;;;;;5015622;28;20717;-76
2021/12/23 12:25:57;;;;;;;34.42;15.48;;;1.80;1.00;;;;;;5074823;28;20202;-75
2021/12/23 12:28:27;;;;;;;28.90;15.40;;;1.90;1.00;;;;;;5074389;28;20215;-75
2021/12/23 12:31:05;;;;;;;27.70;14.48;;;2.00;1.00;;;;;;5075153;28;20205;-76
2021/12/23 12:33:34;;;;;;;29.05;15.55;;;2.00;1.00;;;;;;5074358;28;20186;-76
2021/12/23 12:36:12;;;;;;;32.95;15.35;;;2.00;1.00;;;;;;5077672;28;20241;-76
2021/12/23 12:38:52;;;;;;;34.85;14.93;;;2.00;1.00;;;;;;5095737;28;20252;-76
2021/12/23 12:41:39;;;;;;;30.92;15.07;;;2.10;1.00;;;;;;5083351;28;20178;-78
2021/12/23 12:47:26;;;;;;;32.75;15.68;;;2.30;1.00;;;;;;5088131;28;20194;-76
2021/12/23 12:50:17;;;;;;;33.28;14.90;;;2.30;1.00;;;;;;4994196;28;20612;-76
2021/12/23 12:52:48;;;;;;;31.83;15.05;;;2.40;1.00;;;;;;5004174;28;20774;-76
2021/12/23 12:55:28;;;;;;;29.35;14.85;;;2.40;1.00;;;;;;4998554;28;20239;-76
2021/12/23 12:58:02;;;;;;;22.50;11.05;;;2.50;1.00;;;;;;5011198;28;20203;-76
2021/12/23 13:00:38;;;;;;;30.08;13.75;;;2.70;1.00;;;;;;4977612;28;20258;-76
2021/12/23 13:03:05;;;;;;;25.33;14.77;;;2.70;1.00;;;;;;5009384;28;20216;-77
2021/12/23 13:05:38;;;;;;;28.95;15.32;;;2.70;1.00;;;;;;5013249;28;20671;-76
2021/12/23 13:08:28;;;;;;;22.85;10.55;;;2.70;1.00;;;;;;5009062;28;20269;-76
2021/12/23 13:10:59;;;;;;;23.00;11.13;;;2.70;1.00;;;;;;5011702;28;20544;-76
2021/12/23 13:13:41;;;;;;;25.35;12.90;;;2.70;1.00;;;;;;5001486;28;20184;-75
2021/12/23 13:16:23;;;;;;;20.80;11.70;;;2.70;1.00;;;;;;5012159;28;20209;-77
2021/12/23 13:19:11;;;;;;;25.13;12.10;;;2.80;1.00;;;;;;5012926;28;20177;-75
2021/12/23 13:21:42;;;;;;;26.60;11.80;;;2.90;1.00;;;;;;4954243;29;20218;-75
2021/12/23 13:24:11;;;;;;;24.23;10.95;;;2.80;1.00;;;;;;4955230;28;20599;-76
2021/12/23 13:26:46;;;;;;;21.63;11.60;;;2.90;1.00;;;;;;5044730;28;20258;-77
2021/12/23 13:29:15;;;;;;;20.95;10.88;;;3.10;1.00;;;;;;5045375;28;20196;-76
2021/12/23 13:31:51;;;;;;;24.20;11.70;;;3.10;1.00;;;;;;5032354;28;20191;-75
2021/12/23 13:34:24;;;;;;;27.88;11.20;;;3.20;1.00;;;;;;5037147;28;20214;-75
2021/12/23 13:36:59;;;;;;;19.70;9.90;;;3.20;1.00;;;;;;5043435;28;20218;-75
2021/12/23 13:39:31;;;;;;;28.13;12.82;;;3.10;1.00;;;;;;5052334;28;20179;-75
2021/12/23 13:42:02;;;;;;;25.58;12.15;;;3.10;1.00;;;;;;5038515;28;20266;-75
2021/12/23 13:44:37;;;;;;;25.88;12.38;;;3.10;1.00;;;;;;5032149;28;20660;-75
2021/12/23 13:47:02;;;;;;;22.25;11.43;;;3.10;1.00;;;;;;5048113;28;20689;-75
2021/12/23 13:49:47;;;;;;;29.00;11.73;;;3.00;1.00;;;;;;5040132;28;20275;-75
2021/12/23 13:52:40;;;;;;;23.75;11.88;;;3.10;1.00;;;;;;5035851;28;20435;-76
2021/12/23 13:55:13;;;;;;;24.10;11.20;;;3.10;1.00;;;;;;5043186;28;20682;-75
2021/12/23 13:57:42;;;;;;;22.00;10.15;;;3.10;1.00;;;;;;5042601;28;20196;-75
2021/12/23 14:00:14;;;;;;;29.25;11.20;;;3.10;1.00;;;;;;5086162;28;20175;-75
2021/12/23 14:02:47;;;;;;;28.13;12.60;;;3.20;1.00;;;;;;5087412;28;20178;-76
2021/12/23 14:05:13;;;;;;;29.08;12.88;;;3.20;1.00;;;;;;5088148;28;20220;-75
2021/12/23 14:07:42;;;;;;;22.38;11.02;;;3.20;1.00;;;;;;5074565;28;20586;-76
2021/12/23 14:10:14;;;;;;;20.63;10.48;;;3.20;1.00;;;;;;5081971;28;20181;-76
2021/12/23 14:13:10;;;;;;;26.90;11.75;;;3.20;1.00;;;;;;5080399;28;20206;-76
2021/12/23 14:15:43;;;;;;;24.70;10.45;;;3.20;1.00;;;;;;5092245;28;20251;-76
2021/12/23 14:18:25;;;;;;;24.52;11.70;;;3.20;1.00;;;;;;5079384;28;20178;-76
2021/12/23 14:23:44;;;;;;;35.17;12.48;;;3.20;1.00;;;;;;5093808;28;20179;-76